createdAt,value
2018-07-26T00:00:43.558Z,33.80
2018-07-26T00:03:16.170Z,33.80
2018-07-26T00:05:48.434Z,33.90
2018-07-26T00:08:21.412Z,33.90
2018-07-26T00:10:53.777Z,33.90
2018-07-26T00:13:25.853Z,33.90
2018-07-26T00:15:57.839Z,33.80
2018-07-26T00:18:29.759Z,33.80
2018-07-26T00:21:01.725Z,33.90
2018-07-26T00:23:34.339Z,33.80
2018-07-26T00:26:07.499Z,33.90
2018-07-26T00:28:40.324Z,33.90
2018-07-26T00:33:43.996Z,33.90
2018-07-26T00:36:16.515Z,33.90
2018-07-26T00:38:48.794Z,33.90
2018-07-26T00:43:52.683Z,33.90
2018-07-26T00:46:25.682Z,33.90
2018-07-26T00:48:58.279Z,33.90
2018-07-26T00:51:30.865Z,33.80
2018-07-26T00:56:34.237Z,33.80
2018-07-26T00:59:07.377Z,33.90
2018-07-26T01:01:40.076Z,33.80
2018-07-26T01:04:12.636Z,33.80
2018-07-26T01:06:45.841Z,33.80
2018-07-26T01:09:18.346Z,33.70
2018-07-26T01:11:50.720Z,33.70
2018-07-26T01:14:23.360Z,33.70
2018-07-26T01:16:56.014Z,33.70
2018-07-26T01:19:28.734Z,33.70
2018-07-26T01:22:01.148Z,33.60
2018-07-26T01:24:33.843Z,33.60
2018-07-26T01:29:37.579Z,33.50
2018-07-26T01:32:10.358Z,33.40
2018-07-26T01:34:43.723Z,33.40
2018-07-26T01:39:46.959Z,33.40
2018-07-26T01:42:19.482Z,33.30
2018-07-26T01:44:51.817Z,33.30
2018-07-26T01:47:23.961Z,33.30
2018-07-26T01:49:56.504Z,33.20
2018-07-26T01:52:28.938Z,33.20
2018-07-26T01:55:01.078Z,33.10
2018-07-26T01:57:33.471Z,33.10
2018-07-26T02:00:06.009Z,33.00
2018-07-26T02:02:38.494Z,33.00
2018-07-26T02:07:42.095Z,32.90
2018-07-26T02:10:14.569Z,32.80
2018-07-26T02:12:46.872Z,32.70
2018-07-26T02:15:19.421Z,32.70
2018-07-26T02:17:51.826Z,32.70
2018-07-26T02:20:24.175Z,32.60
2018-07-26T02:25:27.776Z,32.50
2018-07-26T02:30:32.190Z,32.30
2018-07-26T02:33:04.835Z,32.20
2018-07-26T02:35:37.300Z,32.20
2018-07-26T02:38:10.450Z,32.00
2018-07-26T02:40:42.481Z,31.90
2018-07-26T02:43:14.764Z,31.90
2018-07-26T02:45:47.329Z,31.80
2018-07-26T02:48:19.957Z,31.70
2018-07-26T02:50:52.278Z,31.60
2018-07-26T02:53:24.874Z,31.50
2018-07-26T02:55:57.328Z,31.40
2018-07-26T02:58:29.888Z,31.30
2018-07-26T03:01:02.454Z,31.30
2018-07-26T03:03:34.842Z,31.10
2018-07-26T03:06:07.316Z,30.90
2018-07-26T03:08:39.892Z,30.90
2018-07-26T03:11:12.334Z,30.80
2018-07-26T03:13:44.347Z,30.70
2018-07-26T03:16:16.901Z,30.60
2018-07-26T03:18:49.190Z,30.50
2018-07-26T03:21:21.575Z,30.50
2018-07-26T03:26:25.043Z,30.10
2018-07-26T03:28:57.630Z,30.00
2018-07-26T03:31:30.589Z,30.00
2018-07-26T03:34:02.967Z,29.90
2018-07-26T03:36:34.817Z,29.70
2018-07-26T03:39:09.179Z,29.70
2018-07-26T03:41:41.543Z,29.60
2018-07-26T03:44:13.702Z,29.50
2018-07-26T03:46:46.477Z,29.30
2018-07-26T03:49:18.705Z,29.20
2018-07-26T03:54:22.994Z,29.10
2018-07-26T03:56:55.041Z,28.90
2018-07-26T03:59:27.888Z,28.80
2018-07-26T04:02:00.954Z,28.70
2018-07-26T04:04:33.426Z,28.60
2018-07-26T04:07:06.304Z,28.50
2018-07-26T04:12:10.062Z,28.30
2018-07-26T04:14:41.971Z,28.20
2018-07-26T04:17:13.846Z,28.00
2018-07-26T04:19:46.135Z,27.80
2018-07-26T04:22:18.767Z,27.70
2018-07-26T04:24:51.089Z,27.60
2018-07-26T04:27:23.407Z,27.50
2018-07-26T04:29:55.665Z,27.40
2018-07-26T04:32:28.501Z,27.30
2018-07-26T04:35:00.519Z,27.20
2018-07-26T04:37:33.826Z,27.10
2018-07-26T04:40:06.344Z,27.10
2018-07-26T04:42:38.610Z,27.00
2018-07-26T04:45:11.054Z,27.00
2018-07-26T04:47:43.272Z,26.90
2018-07-26T04:50:15.833Z,26.80
2018-07-26T04:52:48.041Z,26.80
2018-07-26T04:55:20.545Z,26.70
2018-07-26T04:57:53.345Z,26.60
2018-07-26T05:00:25.873Z,26.50
2018-07-26T05:02:58.042Z,26.40
2018-07-26T05:05:30.360Z,26.30
2018-07-26T05:08:03.865Z,26.20
2018-07-26T05:10:36.538Z,26.10
2018-07-26T05:13:08.680Z,26.00
2018-07-26T05:15:41.357Z,25.90
2018-07-26T05:18:13.692Z,25.90
2018-07-26T05:20:46.417Z,25.70
2018-07-26T05:23:18.832Z,25.60
2018-07-26T05:25:51.329Z,25.50
2018-07-26T05:28:24.033Z,25.50
2018-07-26T05:30:56.615Z,25.40
2018-07-26T05:33:29.013Z,25.40
2018-07-26T05:36:01.317Z,25.30
2018-07-26T05:38:33.762Z,25.30
2018-07-26T05:41:06.283Z,25.20
2018-07-26T05:43:38.780Z,25.10
2018-07-26T05:46:11.178Z,25.10
2018-07-26T05:48:43.520Z,25.00
2018-07-26T05:51:15.871Z,24.90
2018-07-26T05:53:47.961Z,24.90
2018-07-26T05:56:20.173Z,24.90
2018-07-26T05:58:52.527Z,24.80
2018-07-26T06:01:25.267Z,24.80
2018-07-26T06:03:57.993Z,24.80
2018-07-26T06:06:30.231Z,24.70
2018-07-26T06:09:02.892Z,24.60
2018-07-26T06:11:35.454Z,24.60
2018-07-26T06:14:08.272Z,24.60
2018-07-26T06:16:40.895Z,24.60
2018-07-26T06:19:13.134Z,24.50
2018-07-26T06:21:45.654Z,24.50
2018-07-26T06:24:18.139Z,24.40
2018-07-26T06:26:50.453Z,24.40
2018-07-26T06:29:22.831Z,24.40
2018-07-26T06:31:55.189Z,24.30
2018-07-26T06:34:27.414Z,24.20
2018-07-26T06:36:59.992Z,24.20
2018-07-26T06:39:32.338Z,24.10
2018-07-26T06:42:05.009Z,24.10
2018-07-26T06:44:37.479Z,24.00
2018-07-26T06:47:10.048Z,23.90
2018-07-26T06:49:42.342Z,23.90
2018-07-26T06:52:14.941Z,23.80
2018-07-26T06:54:47.400Z,23.80
2018-07-26T06:57:20.033Z,23.60
2018-07-26T06:59:52.612Z,23.50
2018-07-26T07:02:25.398Z,23.40
2018-07-26T07:04:57.907Z,23.30
2018-07-26T07:07:30.437Z,23.20
2018-07-26T07:10:03.053Z,23.10
2018-07-26T07:12:35.289Z,22.90
2018-07-26T07:17:38.906Z,22.70
2018-07-26T07:20:11.669Z,22.70
2018-07-26T07:22:44.446Z,22.60
2018-07-26T07:25:16.801Z,22.60
2018-07-26T07:27:49.272Z,22.50
2018-07-26T07:32:52.900Z,22.40
2018-07-26T07:35:25.345Z,22.30
2018-07-26T07:37:57.642Z,22.20
2018-07-26T07:40:30.046Z,22.10
2018-07-26T07:43:02.404Z,22.10
2018-07-26T07:45:34.583Z,22.00
2018-07-26T07:48:06.919Z,21.90
2018-07-26T07:50:39.543Z,21.90
2018-07-26T07:53:11.713Z,21.90
2018-07-26T07:55:44.223Z,21.80
2018-07-26T07:58:16.456Z,21.80
2018-07-26T08:00:48.642Z,21.70
2018-07-26T08:03:20.975Z,21.70
2018-07-26T08:05:53.382Z,21.60
2018-07-26T08:08:26.193Z,21.50
2018-07-26T08:10:58.699Z,21.40
2018-07-26T08:13:30.929Z,21.40
2018-07-26T08:16:03.565Z,21.30
2018-07-26T08:18:35.901Z,21.20
2018-07-26T08:21:08.620Z,21.20
2018-07-26T08:23:41.225Z,21.10
2018-07-26T08:26:13.479Z,21.00
2018-07-26T08:28:45.790Z,20.90
2018-07-26T08:31:17.967Z,20.80
2018-07-26T08:33:50.325Z,20.80
2018-07-26T08:36:22.690Z,20.70
2018-07-26T08:38:55.089Z,20.60
2018-07-26T08:41:27.471Z,20.40
2018-07-26T08:43:59.804Z,20.40
2018-07-26T08:46:32.198Z,20.40
2018-07-26T08:49:04.377Z,20.30
2018-07-26T08:51:36.957Z,20.30
2018-07-26T08:54:09.641Z,20.10
2018-07-26T08:56:41.909Z,20.00
2018-07-26T08:59:14.318Z,20.00
2018-07-26T09:01:46.703Z,20.10
2018-07-26T09:04:19.798Z,20.00
2018-07-26T09:06:52.226Z,20.00
2018-07-26T09:09:24.986Z,19.90
2018-07-26T09:11:57.565Z,19.80
2018-07-26T09:14:29.736Z,19.70
2018-07-26T09:17:02.103Z,19.70
2018-07-26T09:19:35.726Z,19.60
2018-07-26T09:22:08.357Z,19.60
2018-07-26T09:24:43.027Z,19.60
2018-07-26T09:27:16.316Z,19.50
2018-07-26T09:29:48.683Z,19.50
2018-07-26T09:32:21.388Z,19.50
2018-07-26T09:34:53.766Z,19.50
2018-07-26T09:37:26.170Z,19.40
2018-07-26T09:39:58.570Z,19.30
2018-07-26T09:42:30.926Z,19.30
2018-07-26T09:45:03.180Z,19.20
2018-07-26T09:47:35.711Z,19.10
2018-07-26T09:50:08.756Z,19.10
2018-07-26T09:52:41.183Z,19.10
2018-07-26T09:55:13.677Z,19.00
2018-07-26T09:57:45.841Z,19.10
2018-07-26T10:02:26.226Z,19.10
2018-07-26T10:04:58.774Z,19.00
2018-07-26T10:07:31.176Z,19.00
2018-07-26T10:10:03.403Z,19.00
2018-07-26T10:12:35.878Z,18.90
2018-07-26T10:15:08.148Z,18.80
2018-07-26T10:17:40.389Z,18.90
2018-07-26T10:20:13.242Z,18.80
2018-07-26T10:22:45.719Z,18.70
2018-07-26T10:25:18.095Z,18.70
2018-07-26T10:27:50.306Z,18.70
2018-07-26T10:30:22.780Z,18.60
2018-07-26T10:32:55.206Z,18.60
2018-07-26T10:35:27.618Z,18.50
2018-07-26T10:38:00.379Z,18.50
2018-07-26T10:40:32.695Z,18.50
2018-07-26T10:43:05.215Z,18.50
2018-07-26T10:45:37.385Z,18.40
2018-07-26T10:48:09.761Z,18.40
2018-07-26T10:50:42.089Z,18.40
2018-07-26T10:53:14.931Z,18.40
2018-07-26T10:55:47.523Z,18.40
2018-07-26T10:58:20.251Z,18.30
2018-07-26T11:00:52.817Z,18.30
2018-07-26T11:03:25.436Z,18.20
2018-07-26T11:05:57.926Z,18.20
2018-07-26T11:08:30.568Z,18.20
2018-07-26T11:11:03.854Z,18.10
2018-07-26T11:13:36.759Z,18.10
2018-07-26T11:16:09.298Z,18.00
2018-07-26T11:18:41.503Z,18.00
2018-07-26T11:21:13.898Z,18.00
2018-07-26T11:23:46.447Z,17.90
2018-07-26T11:26:18.816Z,17.80
2018-07-26T11:28:51.194Z,17.80
2018-07-26T11:31:23.592Z,17.70
2018-07-26T11:33:55.668Z,17.70
2018-07-26T11:36:27.863Z,17.70
2018-07-26T11:39:00.299Z,17.60
2018-07-26T11:41:32.807Z,17.60
2018-07-26T11:44:05.337Z,17.60
2018-07-26T11:46:38.149Z,17.50
2018-07-26T11:49:10.577Z,17.50
2018-07-26T11:51:43.086Z,17.50
2018-07-26T11:54:15.469Z,17.40
2018-07-26T11:56:47.911Z,17.40
2018-07-26T11:59:20.206Z,17.40
2018-07-26T12:01:52.783Z,17.40
2018-07-26T12:04:25.190Z,17.30
2018-07-26T12:06:57.523Z,17.30
2018-07-26T12:09:29.920Z,17.30
2018-07-26T12:12:02.261Z,17.20
2018-07-26T12:14:34.881Z,17.20
2018-07-26T12:17:07.435Z,17.20
2018-07-26T12:19:40.319Z,17.10
2018-07-26T12:22:13.196Z,17.10
2018-07-26T12:24:46.194Z,17.10
2018-07-26T12:27:18.595Z,17.00
2018-07-26T12:29:51.094Z,16.90
2018-07-26T12:32:23.731Z,16.90
2018-07-26T12:34:56.216Z,16.80
2018-07-26T12:37:29.321Z,16.80
2018-07-26T12:40:01.989Z,16.70
2018-07-26T12:42:34.567Z,16.70
2018-07-26T12:45:07.369Z,16.60
2018-07-26T12:47:39.778Z,16.60
2018-07-26T12:50:12.155Z,16.50
2018-07-26T12:52:44.504Z,16.50
2018-07-26T12:55:17.113Z,16.50
2018-07-26T12:57:49.714Z,16.50
2018-07-26T13:00:22.398Z,16.50
2018-07-26T13:02:54.871Z,16.40
2018-07-26T13:05:27.401Z,16.30
2018-07-26T13:07:59.901Z,16.30
2018-07-26T13:10:32.523Z,16.30
2018-07-26T13:13:04.880Z,16.30
2018-07-26T13:15:37.050Z,16.20
2018-07-26T13:18:09.556Z,16.20
2018-07-26T13:20:42.044Z,16.30
2018-07-26T13:23:14.652Z,16.30
2018-07-26T13:25:46.979Z,16.30
2018-07-26T13:28:19.234Z,16.30
2018-07-26T13:30:51.330Z,16.30
2018-07-26T13:33:23.915Z,16.40
2018-07-26T13:35:56.560Z,16.40
2018-07-26T13:38:28.807Z,16.50
2018-07-26T13:41:01.092Z,16.50
2018-07-26T13:43:34.736Z,16.60
2018-07-26T13:46:07.339Z,16.70
2018-07-26T13:48:40.071Z,16.80
2018-07-26T13:51:12.438Z,16.80
2018-07-26T13:53:44.699Z,16.90
2018-07-26T13:56:18.141Z,17.00
2018-07-26T13:58:50.644Z,17.10
2018-07-26T14:01:23.016Z,17.20
2018-07-26T14:03:55.202Z,17.30
2018-07-26T14:06:27.520Z,17.40
2018-07-26T14:11:31.445Z,17.60
2018-07-26T14:14:03.882Z,17.80
2018-07-26T14:16:36.482Z,17.90
2018-07-26T14:19:09.661Z,18.00
2018-07-26T14:21:42.028Z,18.10
2018-07-26T14:24:19.292Z,18.20
2018-07-26T14:26:53.570Z,18.30
2018-07-26T14:29:26.119Z,18.50
2018-07-26T14:31:58.463Z,18.60
2018-07-26T14:34:31.072Z,18.70
2018-07-26T14:37:03.537Z,18.70
2018-07-26T14:39:36.261Z,18.80
2018-07-26T14:42:08.666Z,18.90
2018-07-26T14:44:40.823Z,19.10
2018-07-26T14:47:13.358Z,19.20
2018-07-26T14:49:45.936Z,19.30
2018-07-26T14:52:18.298Z,19.40
2018-07-26T14:54:50.798Z,19.50
2018-07-26T14:57:23.176Z,19.60
2018-07-26T14:59:55.539Z,19.70
2018-07-26T15:02:27.859Z,19.70
2018-07-26T15:05:00.350Z,19.80
2018-07-26T15:07:32.600Z,19.90
2018-07-26T15:10:05.482Z,20.10
2018-07-26T15:12:38.072Z,20.20
2018-07-26T15:15:10.805Z,20.40
2018-07-26T15:17:43.268Z,20.60
2018-07-26T15:20:16.301Z,20.90
2018-07-26T15:22:48.647Z,21.20
2018-07-26T15:25:27.341Z,21.60
2018-07-26T15:27:59.642Z,22.10
2018-07-26T15:30:32.071Z,22.80
2018-07-26T15:33:04.264Z,23.70
2018-07-26T15:35:36.647Z,24.80
2018-07-26T15:38:09.045Z,26.00
2018-07-26T15:40:41.201Z,27.30
2018-07-26T15:43:13.776Z,28.70
2018-07-26T15:45:46.235Z,30.00
2018-07-26T15:48:18.524Z,31.10
2018-07-26T15:50:50.764Z,32.30
2018-07-26T15:53:23.084Z,32.70
2018-07-26T15:55:55.266Z,33.50
2018-07-26T16:00:59.211Z,34.90
2018-07-26T16:03:31.579Z,35.80
2018-07-26T16:06:03.902Z,36.00
2018-07-26T16:08:36.713Z,36.60
2018-07-26T16:11:09.069Z,37.50
2018-07-26T16:13:41.779Z,37.70
2018-07-26T16:16:13.913Z,38.10
2018-07-26T16:18:46.492Z,37.70
2018-07-26T16:21:18.960Z,37.90
2018-07-26T16:23:51.376Z,37.70
2018-07-26T16:26:24.144Z,38.40
2018-07-26T16:28:56.944Z,39.00
2018-07-26T16:31:29.311Z,38.40
2018-07-26T16:34:02.016Z,39.00
2018-07-26T16:36:34.491Z,38.20
2018-07-26T16:39:09.589Z,38.50
2018-07-26T16:41:42.272Z,38.10
2018-07-26T16:44:14.687Z,38.90
2018-07-26T16:46:47.234Z,38.70
2018-07-26T16:49:19.930Z,38.70
2018-07-26T16:51:52.452Z,39.40
2018-07-26T16:54:25.038Z,40.00
2018-07-26T16:56:57.512Z,40.20
2018-07-26T16:59:30.148Z,40.20
2018-07-26T17:02:02.694Z,40.80
2018-07-26T17:04:35.094Z,41.80
2018-07-26T17:07:07.469Z,42.00
2018-07-26T17:09:39.775Z,42.10
2018-07-26T17:12:12.013Z,41.00
2018-07-26T17:14:44.281Z,42.30
2018-07-26T17:17:16.714Z,41.70
2018-07-26T17:19:49.226Z,41.90
2018-07-26T17:22:21.858Z,42.60
2018-07-26T17:24:54.909Z,42.80
2018-07-26T17:27:27.565Z,42.90
2018-07-26T17:29:59.753Z,43.50
2018-07-26T17:32:32.420Z,43.80
2018-07-26T17:35:05.361Z,43.80
2018-07-26T17:37:37.531Z,42.90
2018-07-26T17:40:09.841Z,42.50
2018-07-26T17:42:42.305Z,43.10
2018-07-26T17:45:14.896Z,42.90
2018-07-26T17:47:47.432Z,42.60
2018-07-26T17:50:19.902Z,43.50
2018-07-26T17:52:52.675Z,42.40
2018-07-26T17:55:25.380Z,42.30
2018-07-26T17:57:57.852Z,43.00
2018-07-26T18:00:30.516Z,42.20
2018-07-26T18:03:03.094Z,42.00
2018-07-26T18:05:35.603Z,41.50
2018-07-26T18:08:07.806Z,42.00
2018-07-26T18:10:41.136Z,42.50
2018-07-26T18:13:13.540Z,42.30
2018-07-26T18:15:45.674Z,40.90
2018-07-26T18:18:18.225Z,41.20
2018-07-26T18:20:51.410Z,41.90
2018-07-26T18:23:23.737Z,41.90
2018-07-26T18:25:56.529Z,41.80
2018-07-26T18:28:29.520Z,42.10
2018-07-26T18:31:01.947Z,41.40
2018-07-26T18:33:34.425Z,41.80
2018-07-26T18:36:06.872Z,42.00
2018-07-26T18:38:39.500Z,43.00
2018-07-26T18:41:11.950Z,42.20
2018-07-26T18:43:44.297Z,41.80
2018-07-26T18:46:17.043Z,41.90
2018-07-26T18:48:49.543Z,42.10
2018-07-26T18:51:22.282Z,42.50
2018-07-26T18:53:55.041Z,41.90
2018-07-26T18:56:27.662Z,42.20
2018-07-26T18:59:00.223Z,41.50
2018-07-26T19:01:32.623Z,42.10
2018-07-26T19:04:05.231Z,42.70
2018-07-26T19:06:37.743Z,42.60
2018-07-26T19:09:13.341Z,42.30
2018-07-26T19:11:45.786Z,43.30
2018-07-26T19:14:18.146Z,42.70
2018-07-26T19:16:50.566Z,42.60
2018-07-26T19:19:22.977Z,42.90
2018-07-26T19:21:55.291Z,42.60
2018-07-26T19:24:27.733Z,42.90
2018-07-26T19:27:00.313Z,43.10
2018-07-26T19:29:33.216Z,41.80
2018-07-26T19:34:37.097Z,40.40
2018-07-26T19:37:11.566Z,40.80
2018-07-26T19:39:43.738Z,40.40
2018-07-26T19:42:16.010Z,40.00
2018-07-26T19:44:48.343Z,39.80
2018-07-26T19:47:21.162Z,40.10
2018-07-26T19:49:53.587Z,40.10
2018-07-26T19:52:25.815Z,40.40
2018-07-26T19:54:58.391Z,40.20
2018-07-26T19:57:30.764Z,39.80
2018-07-26T20:00:03.254Z,39.70
2018-07-26T20:02:35.789Z,39.70
2018-07-26T20:05:08.844Z,40.00
2018-07-26T20:07:41.503Z,39.60
2018-07-26T20:10:14.939Z,39.10
2018-07-26T20:15:18.857Z,37.80
2018-07-26T20:20:22.278Z,36.20
2018-07-26T20:22:54.790Z,35.90
2018-07-26T20:25:27.132Z,34.90
2018-07-26T20:30:31.203Z,34.50
2018-07-26T20:33:03.542Z,34.50
2018-07-26T20:35:36.188Z,34.60
2018-07-26T20:38:08.689Z,34.60
2018-07-26T20:40:41.110Z,34.20
2018-07-26T20:43:13.406Z,34.20
2018-07-26T20:45:45.800Z,34.00
2018-07-26T20:48:18.295Z,33.90
2018-07-26T20:50:51.133Z,33.80
2018-07-26T20:53:24.366Z,33.70
2018-07-26T20:55:57.090Z,33.70
2018-07-26T20:58:29.571Z,33.70
2018-07-26T21:01:02.124Z,33.50
2018-07-26T21:03:34.706Z,33.50
2018-07-26T21:06:07.303Z,33.60
2018-07-26T21:08:39.814Z,33.70
2018-07-26T21:11:12.234Z,33.50
2018-07-26T21:13:44.956Z,33.50
2018-07-26T21:16:17.433Z,33.40
2018-07-26T21:18:49.988Z,33.50
2018-07-26T21:23:54.346Z,33.60
2018-07-26T21:26:27.111Z,33.70
2018-07-26T21:28:59.757Z,33.60
2018-07-26T21:31:33.580Z,33.60
2018-07-26T21:34:06.308Z,33.60
2018-07-26T21:39:16.635Z,33.60
2018-07-26T21:41:49.145Z,33.40
2018-07-26T21:44:21.541Z,33.20
2018-07-26T21:46:54.079Z,33.10
2018-07-26T21:49:26.743Z,33.00
2018-07-26T21:51:59.458Z,33.00
2018-07-26T21:54:32.033Z,33.10
2018-07-26T21:57:04.393Z,33.20
2018-07-26T21:59:36.830Z,33.20
2018-07-26T22:02:09.206Z,33.20
2018-07-26T22:07:13.664Z,33.30
2018-07-26T22:09:46.445Z,33.20
2018-07-26T22:12:19.023Z,33.10
2018-07-26T22:14:51.467Z,33.20
2018-07-26T22:17:23.746Z,33.20
2018-07-26T22:19:56.156Z,33.20
2018-07-26T22:22:28.358Z,33.30
2018-07-26T22:25:01.070Z,33.30
2018-07-26T22:27:33.425Z,33.30
2018-07-26T22:30:05.818Z,33.30
2018-07-26T22:35:09.810Z,33.20
2018-07-26T22:37:42.032Z,33.30
2018-07-26T22:40:14.551Z,33.20
2018-07-26T22:42:46.695Z,33.30
2018-07-26T22:45:18.888Z,33.30
2018-07-26T22:47:51.264Z,33.30
2018-07-26T22:50:24.047Z,33.40
2018-07-26T22:52:56.711Z,33.40
2018-07-26T22:55:29.189Z,33.30
2018-07-26T22:58:01.603Z,33.30
2018-07-26T23:05:36.829Z,33.50
2018-07-26T23:08:09.193Z,33.50
2018-07-26T23:10:41.705Z,33.70
2018-07-26T23:13:14.293Z,33.80
2018-07-26T23:15:46.505Z,33.80
2018-07-26T23:18:19.332Z,33.80
2018-07-26T23:20:51.536Z,33.80
2018-07-26T23:23:23.867Z,33.70
2018-07-26T23:25:56.295Z,33.70
2018-07-26T23:28:29.018Z,33.70
2018-07-26T23:31:01.538Z,33.70
2018-07-26T23:33:34.267Z,33.60
2018-07-26T23:36:06.748Z,33.70
2018-07-26T23:38:39.367Z,33.70
2018-07-26T23:41:11.597Z,33.70
2018-07-26T23:43:44.293Z,33.70
2018-07-26T23:46:16.667Z,33.60
2018-07-26T23:51:20.981Z,33.70
2018-07-26T23:53:53.326Z,33.70
2018-07-26T23:56:25.941Z,33.70
